»·PEaware :: SWA2080 KLAS-KSAN

SWA2080 :: KLAS-KSAN

FLIGHT INFORMATION

Flight Status: Arrived
Operator:
Southwest Airlines
More flights by this operator :: More flights under this callsign
Pilot: Ben L. (6391)
Aircraft: BOEING 737-800
(B738)
More flights by this aircraft type
Origin: KLAS McCarran Intl
United States
Destination: KSAN San Diego Intl-Lindbergh
United States
More flights between these airports :: More routes between these airports
Route: +BOACH8 LVELL LUCKI1
File this flight plan on PilotEdge
Remarks:
Altitude:
(Current/Filed)
27,000ft
Speed:
(Current/Filed)
450kts
Departed: 30-Apr-20 03:40 PM
Arrived: 30-Apr-20 04:27 PM
Distance/Time
Traveled:
225nm/0:46
Distance/Time
To Go:
Arrived

Flight Plot

Page will automatically refresh every two minutes.

Flight plan parsing failed; only flown route is shown


Map Options




Map Legend


Flown Route
Filed Route
Departure Airport
Arrival Airport
Navaid (VOR, NDB)
Fix

Horizontal Profiles

Position Reports

Time Latitude Longitude Heading Altitude Ground
Speed
30-Apr-20 15:04 36.079759 -115.146263 342 2097ft 0kts
30-Apr-20 15:05 36.079759 -115.146263 342 2097ft 0kts
30-Apr-20 15:06 36.079759 -115.146263 342 2097ft 0kts
30-Apr-20 15:07 36.079759 -115.146263 342 2097ft 0kts
30-Apr-20 15:08 36.079759 -115.146263 342 2097ft 0kts
30-Apr-20 15:09 36.079759 -115.146263 342 2097ft 0kts
30-Apr-20 15:10 36.079759 -115.146263 342 2097ft 0kts
30-Apr-20 15:11 36.079759 -115.146263 342 2097ft 0kts
30-Apr-20 15:12 36.079759 -115.146263 342 2097ft 0kts
30-Apr-20 15:13 36.079759 -115.146263 342 2097ft 0kts
30-Apr-20 15:14 36.079759 -115.146263 342 2097ft 0kts
30-Apr-20 15:15 36.079759 -115.146263 342 2097ft 0kts
30-Apr-20 15:16 36.079759 -115.146263 342 2096ft 0kts
30-Apr-20 15:17 36.079759 -115.146263 342 2096ft 0kts
30-Apr-20 15:18 36.079759 -115.146263 342 2096ft 0kts
30-Apr-20 15:19 36.079759 -115.146263 342 2096ft 0kts
30-Apr-20 15:20 36.079759 -115.146263 342 2096ft 0kts
30-Apr-20 15:22 36.079759 -115.146263 342 2096ft 0kts
30-Apr-20 15:23 36.079759 -115.146263 342 2096ft 0kts
30-Apr-20 15:24 36.079563 -115.146208 0 2097ft 2kts
30-Apr-20 15:25 36.079060 -115.146551 60 2100ft 2kts
30-Apr-20 15:26 36.079054 -115.147259 120 2103ft 2kts
30-Apr-20 15:27 36.079340 -115.147566 155 2103ft 0kts
30-Apr-20 15:28 36.079340 -115.147566 155 2103ft 0kts
30-Apr-20 15:29 36.079340 -115.147566 155 2103ft 0kts
30-Apr-20 15:30 36.079340 -115.147566 155 2103ft 0kts
30-Apr-20 15:31 36.079340 -115.147566 155 2103ft 0kts
30-Apr-20 15:32 36.079340 -115.147566 155 2103ft 0kts
30-Apr-20 15:33 36.079340 -115.147566 155 2103ft 0kts
30-Apr-20 15:34 36.078321 -115.144173 95 2094ft 21kts
30-Apr-20 15:35 36.078256 -115.133906 90 2063ft 35kts
30-Apr-20 15:36 36.078265 -115.124182 90 2040ft 18kts
30-Apr-20 15:36 36.077408 -115.121448 147 2039ft 0kts
30-Apr-20 15:38 36.077406 -115.121447 147 2039ft 0kts
30-Apr-20 15:39 36.076405 -115.121495 267 2041ft 0kts
30-Apr-20 15:39 36.076372 -115.140098 267 2086ft 159kts
30-Apr-20 15:40 36.076835 -115.202061 266 4034ft 190kts
30-Apr-20 15:42 36.039538 -115.269328 201 5909ft 260kts
30-Apr-20 15:42 35.980529 -115.295324 199 7553ft 272kts
30-Apr-20 15:43 35.903222 -115.308988 187 10044ft 289kts
30-Apr-20 15:44 35.819982 -115.311107 176 12270ft 324kts
30-Apr-20 15:45 35.724096 -115.300032 176 14213ft 356kts
30-Apr-20 15:46 35.624420 -115.296420 184 16768ft 364kts
30-Apr-20 15:47 35.521754 -115.300884 185 18915ft 380kts
30-Apr-20 15:48 35.416356 -115.305068 185 21285ft 384kts
30-Apr-20 15:49 35.308638 -115.309332 185 23285ft 393kts
30-Apr-20 15:50 35.198265 -115.313687 186 25125ft 402kts
30-Apr-20 15:51 35.085816 -115.318110 186 26776ft 409kts
30-Apr-20 15:52 34.970512 -115.322630 186 26890ft 415kts
30-Apr-20 15:53 34.856237 -115.327405 189 27077ft 407kts
30-Apr-20 15:54 34.746308 -115.352048 200 27875ft 403kts
30-Apr-20 15:55 34.639244 -115.394296 202 27932ft 404kts
30-Apr-20 15:56 34.533544 -115.439573 203 28021ft 404kts
30-Apr-20 15:57 34.427699 -115.485539 203 28027ft 404kts
30-Apr-20 15:58 34.324560 -115.536505 210 28027ft 400kts
30-Apr-20 15:59 34.227365 -115.601612 209 28027ft 401kts
30-Apr-20 16:00 34.124651 -115.654566 205 28012ft 402kts
30-Apr-20 16:01 34.020115 -115.704514 205 27962ft 403kts
30-Apr-20 16:02 33.915962 -115.753716 205 27849ft 403kts
30-Apr-20 16:03 33.811848 -115.804749 206 27835ft 402kts
30-Apr-20 16:04 33.713732 -115.851752 205 27837ft 373kts
30-Apr-20 16:05 33.616192 -115.897339 205 27832ft 375kts
30-Apr-20 16:06 33.525513 -115.949057 222 25983ft 352kts
30-Apr-20 16:07 33.461388 -116.039365 234 25649ft 358kts
30-Apr-20 16:08 33.404871 -116.134876 235 23578ft 347kts
30-Apr-20 16:09 33.349595 -116.227149 229 21536ft 339kts
30-Apr-20 16:10 33.272346 -116.288854 208 19550ft 336kts
30-Apr-20 16:11 33.189533 -116.336853 208 17721ft 327kts
30-Apr-20 16:12 33.108996 -116.383898 208 16007ft 318kts
30-Apr-20 16:13 33.030227 -116.429883 206 14199ft 315kts
30-Apr-20 16:14 32.959999 -116.489909 220 12451ft 312kts
30-Apr-20 16:15 32.894041 -116.557279 220 10647ft 311kts
30-Apr-20 16:16 32.831492 -116.619793 220 9919ft 279kts
30-Apr-20 16:17 32.773466 -116.682055 232 8461ft 280kts
30-Apr-20 16:18 32.735576 -116.758764 240 7652ft 245kts
30-Apr-20 16:19 32.704741 -116.826447 246 6730ft 230kts
30-Apr-20 16:20 32.682780 -116.898023 249 5517ft 227kts
30-Apr-20 16:21 32.680071 -116.969946 283 4167ft 223kts
30-Apr-20 16:22 32.695716 -117.034146 284 2827ft 182kts
30-Apr-20 16:23 32.709289 -117.089810 285 2168ft 160kts
30-Apr-20 16:24 32.720827 -117.137762 285 980ft 149kts
30-Apr-20 16:25 32.732359 -117.184773 285 27ft 139kts
30-Apr-20 16:26 32.735449 -117.201443 127 20ft 6kts
30-Apr-20 16:27 32.733898 -117.195313 107 23ft 19kts
30-Apr-20 16:28 32.732530 -117.195451 311 22ft 2kts

Navigation Log

Ident Type
Flight plan parsing failed, navigation log unavailable